Time;durP1;ratioP1;P1;durP2;ratioP2;P2;SDS_P1;SDS_P2;PMS_P1;PMS_P2;Temp;Humidity;BMP_temperature;BMP_pressure;BME280_temperature;BME280_humidity;BME280_pressure;Samples;Min_cycle;Max_cycle;Signal;HPM_P1;HPM_P2
2021/12/12 00:02:10;;;;;;;7.85;3.35;;;7.90;73.10;;;;;;5079411;28;20074;-50
2021/12/12 00:04:44;;;;;;;8.30;3.80;;;7.90;73.10;;;;;;5071493;28;20041;-51
2021/12/12 00:07:13;;;;;;;5.15;3.35;;;7.90;73.00;;;;;;5069056;28;20037;-51
2021/12/12 00:09:43;;;;;;;6.53;3.38;;;7.90;73.10;;;;;;5067703;28;20040;-53
2021/12/12 00:12:19;;;;;;;7.93;3.63;;;8.00;73.10;;;;;;5079904;28;20044;-52
2021/12/12 00:14:48;;;;;;;6.03;3.25;;;8.00;73.00;;;;;;5070185;28;20044;-53
2021/12/12 00:17:15;;;;;;;5.90;3.28;;;8.00;73.00;;;;;;5067119;28;20486;-52
2021/12/12 00:19:42;;;;;;;7.20;3.88;;;8.00;72.90;;;;;;5079879;28;20044;-50
2021/12/12 00:22:13;;;;;;;7.95;3.08;;;8.10;72.90;;;;;;5082184;28;20059;-54
2021/12/12 00:24:40;;;;;;;7.28;3.00;;;8.00;72.80;;;;;;5073970;28;20052;-52
2021/12/12 00:27:07;;;;;;;7.35;3.70;;;8.10;72.80;;;;;;5067530;28;20050;-54
2021/12/12 00:29:35;;;;;;;8.23;3.38;;;8.10;72.80;;;;;;5064446;28;20037;-51
2021/12/12 00:32:08;;;;;;;10.10;3.95;;;8.10;72.80;;;;;;5089134;28;20422;-51
2021/12/12 00:34:40;;;;;;;6.63;4.07;;;8.10;72.70;;;;;;5074212;28;20099;-53
2021/12/12 00:37:08;;;;;;;11.07;4.35;;;8.10;72.60;;;;;;5070168;28;20044;-50
2021/12/12 00:39:37;;;;;;;8.73;3.30;;;8.10;72.70;;;;;;5078179;28;20515;-53
2021/12/12 00:42:17;;;;;;;6.00;2.92;;;8.20;72.60;;;;;;5069541;28;20488;-54
2021/12/12 00:44:50;;;;;;;9.80;3.33;;;8.20;72.60;;;;;;5071284;28;20465;-53
2021/12/12 00:47:18;;;;;;;8.07;3.72;;;8.20;72.70;;;;;;5047364;28;20028;-55
2021/12/12 00:50:12;;;;;;;5.78;3.10;;;8.20;73.20;;;;;;5080619;28;20066;-54
2021/12/12 00:52:42;;;;;;;11.18;4.38;;;8.30;72.50;;;;;;5087768;28;20040;-51
2021/12/12 00:55:09;;;;;;;10.27;3.78;;;8.30;72.40;;;;;;5066205;28;20527;-54
2021/12/12 00:57:36;;;;;;;8.13;3.20;;;8.30;72.40;;;;;;5063388;28;20086;-54
2021/12/12 01:00:06;;;;;;;8.73;4.07;;;8.30;72.50;;;;;;5081573;28;20036;-54
2021/12/12 01:02:33;;;;;;;6.18;3.00;;;8.30;72.40;;;;;;5089211;28;20048;-53
2021/12/12 01:05:05;;;;;;;9.65;3.63;;;8.30;72.30;;;;;;5074099;28;20091;-54
2021/12/12 01:07:38;;;;;;;6.82;3.25;;;8.40;72.30;;;;;;5076996;28;20506;-52
2021/12/12 01:10:31;;;;;;;6.93;3.58;;;8.30;72.20;;;;;;5070875;28;20090;-54
2021/12/12 01:12:59;;;;;;;7.72;3.70;;;8.40;72.00;;;;;;5049516;28;20517;-54
2021/12/12 01:15:32;;;;;;;9.30;3.80;;;8.40;72.10;;;;;;5074221;28;20384;-54
2021/12/12 01:18:05;;;;;;;7.63;3.58;;;8.40;72.10;;;;;;5076356;28;20041;-53
2021/12/12 01:20:38;;;;;;;5.70;3.28;;;8.40;72.20;;;;;;5079819;28;20043;-54
2021/12/12 01:23:17;;;;;;;5.53;3.35;;;8.40;72.20;;;;;;5077323;28;20056;-53
2021/12/12 01:25:47;;;;;;;12.05;4.05;;;8.40;72.00;;;;;;5068758;28;20041;-51
2021/12/12 01:28:20;;;;;;;8.48;3.53;;;8.40;72.10;;;;;;5067692;28;20089;-50
2021/12/12 01:30:48;;;;;;;7.03;2.70;;;8.50;72.20;;;;;;5077758;28;20066;-50
2021/12/12 01:33:32;;;;;;;9.85;3.67;;;8.50;72.30;;;;;;5077688;28;20641;-50
2021/12/12 01:36:26;;;;;;;5.75;3.38;;;8.50;72.20;;;;;;5077145;28;20067;-51
2021/12/12 01:38:56;;;;;;;5.15;2.67;;;8.50;72.10;;;;;;5089454;28;20047;-52
2021/12/12 01:41:55;;;;;;;4.85;2.80;;;8.50;72.30;;;;;;5076572;28;20039;-51
2021/12/12 01:44:28;;;;;;;8.00;3.63;;;8.50;72.00;;;;;;5071062;28;20098;-53
2021/12/12 01:47:03;;;;;;;8.32;3.38;;;8.50;72.10;;;;;;5068483;28;20043;-55
2021/12/12 01:49:36;;;;;;;7.82;3.65;;;8.60;72.10;;;;;;5067127;28;20488;-53
2021/12/12 01:52:07;;;;;;;7.85;3.22;;;8.60;72.10;;;;;;5055338;28;20052;-52
2021/12/12 01:54:44;;;;;;;6.00;3.30;;;8.60;72.10;;;;;;5054217;28;20033;-53
2021/12/12 01:57:23;;;;;;;8.05;3.47;;;8.60;72.10;;;;;;5088415;28;20048;-50
2021/12/12 01:59:52;;;;;;;4.18;2.78;;;8.60;71.90;;;;;;5081372;28;20422;-51
2021/12/12 02:02:24;;;;;;;5.97;3.00;;;8.60;72.00;;;;;;5079952;28;20039;-50
2021/12/12 02:04:56;;;;;;;11.43;2.97;;;8.60;72.00;;;;;;5062941;28;20134;-50
2021/12/12 02:07:30;;;;;;;6.80;3.25;;;8.70;72.10;;;;;;5083259;28;20111;-50
2021/12/12 02:10:03;;;;;;;7.30;3.03;;;8.70;72.00;;;;;;5062015;28;20033;-51
2021/12/12 02:12:30;;;;;;;8.75;3.03;;;8.70;71.90;;;;;;5080955;28;20048;-50
2021/12/12 02:14:58;;;;;;;5.47;3.00;;;8.70;71.90;;;;;;5075304;28;20036;-54
2021/12/12 02:17:33;;;;;;;10.07;3.22;;;8.70;71.90;;;;;;5072663;28;20663;-52
2021/12/12 02:36:22;;;;;;;6.00;2.58;;;8.80;71.80;;;;;;5092496;28;20093;-53
2021/12/12 02:38:51;;;;;;;11.50;3.22;;;8.90;71.80;;;;;;5078491;28;20102;-54
2021/12/12 02:41:23;;;;;;;6.97;2.50;;;8.90;71.80;;;;;;5087327;28;20036;-50
2021/12/12 02:43:57;;;;;;;9.75;2.80;;;8.90;71.70;;;;;;5075998;28;20109;-50
2021/12/12 02:46:29;;;;;;;6.80;2.80;;;8.90;71.80;;;;;;5069925;28;20036;-50
2021/12/12 02:49:07;;;;;;;;;;;8.90;71.70;;;;;;5080408;28;20051;-55
2021/12/12 02:51:41;;;;;;;6.85;2.42;;;9.00;71.80;;;;;;5083812;28;19946;-49
2021/12/12 02:54:11;;;;;;;9.80;3.58;;;9.00;71.70;;;;;;5093162;28;20514;-51
2021/12/12 02:56:41;;;;;;;6.28;2.67;;;9.00;71.70;;;;;;5078493;28;20040;-53
2021/12/12 02:59:13;;;;;;;6.05;3.35;;;9.00;71.80;;;;;;5083180;28;20079;-51
2021/12/12 03:01:47;;;;;;;9.27;2.80;;;9.10;72.00;;;;;;5093568;28;20115;-50
2021/12/12 03:04:14;;;;;;;6.40;2.55;;;9.10;72.00;;;;;;5068577;28;20497;-51
2021/12/12 03:06:42;;;;;;;8.55;2.90;;;9.10;72.00;;;;;;5066612;28;20090;-52
2021/12/12 03:09:20;;;;;;;7.95;2.70;;;9.00;72.10;;;;;;5072623;28;20120;-52
2021/12/12 03:11:52;;;;;;;11.82;3.13;;;9.10;72.30;;;;;;5060920;28;20087;-54
2021/12/12 03:14:21;;;;;;;8.55;2.47;;;9.10;72.40;;;;;;5078472;28;20063;-54
2021/12/12 03:16:50;;;;;;;7.10;2.65;;;9.10;73.10;;;;;;5076160;28;20118;-53
2021/12/12 03:19:20;;;;;;;10.10;2.70;;;9.10;72.60;;;;;;5068882;28;20450;-54
2021/12/12 03:21:48;;;;;;;6.57;2.55;;;9.10;72.70;;;;;;5079133;28;20094;-54
2021/12/12 03:24:19;;;;;;;10.25;3.47;;;9.10;72.80;;;;;;5070687;28;20089;-54
2021/12/12 03:26:49;;;;;;;5.40;2.55;;;9.10;72.90;;;;;;5076394;28;20475;-55
2021/12/12 03:29:20;;;;;;;5.30;2.70;;;9.10;72.90;;;;;;5074404;28;20073;-52
2021/12/12 03:31:57;;;;;;;5.35;2.75;;;9.10;73.00;;;;;;5083126;28;20044;-54
2021/12/12 03:34:28;;;;;;;8.05;3.47;;;9.10;73.10;;;;;;5092986;28;20048;-54
2021/12/12 03:36:55;;;;;;;5.38;2.72;;;9.10;73.20;;;;;;5072724;28;20752;-54
2021/12/12 03:39:27;;;;;;;8.77;2.90;;;9.10;73.20;;;;;;5080418;28;20449;-55
2021/12/12 03:41:57;;;;;;;9.10;3.30;;;9.10;73.40;;;;;;5083599;28;20044;-53
2021/12/12 03:44:30;;;;;;;7.80;2.60;;;9.10;73.40;;;;;;5073999;28;20491;-54
2021/12/12 03:47:02;;;;;;;10.80;3.20;;;9.10;73.50;;;;;;5080728;28;20041;-53
2021/12/12 03:49:31;;;;;;;5.88;3.03;;;9.10;73.60;;;;;;5092235;28;20036;-53
2021/12/12 03:51:59;;;;;;;4.88;2.60;;;9.10;73.70;;;;;;5076060;28;20029;-52
2021/12/12 03:54:25;;;;;;;8.73;2.53;;;9.10;73.80;;;;;;5082053;28;20044;-51
2021/12/12 03:56:52;;;;;;;9.18;2.92;;;9.20;74.00;;;;;;5087831;28;20449;-54
2021/12/12 03:59:19;;;;;;;10.30;3.28;;;9.10;74.10;;;;;;5078252;28;20101;-54
2021/12/12 04:01:50;;;;;;;8.07;2.22;;;9.10;74.20;;;;;;5075386;28;20150;-53
2021/12/12 04:04:26;;;;;;;5.97;2.45;;;9.20;74.30;;;;;;5076797;28;20115;-54
2021/12/12 04:06:54;;;;;;;6.18;2.60;;;9.20;74.40;;;;;;5081138;28;20076;-54
2021/12/12 04:09:21;;;;;;;6.07;3.00;;;9.20;74.30;;;;;;5071723;28;20086;-53
2021/12/12 04:11:57;;;;;;;7.75;2.85;;;9.20;74.40;;;;;;5066705;28;20033;-53
2021/12/12 04:14:24;;;;;;;7.55;2.20;;;9.20;74.50;;;;;;5085822;28;20584;-53
2021/12/12 04:16:57;;;;;;;7.03;2.03;;;9.20;74.50;;;;;;5087113;28;20040;-54
2021/12/12 04:19:24;;;;;;;8.32;2.70;;;9.20;74.60;;;;;;5096711;22;20020;-48
2021/12/12 04:21:55;;;;;;;4.00;2.45;;;9.20;74.60;;;;;;5027713;28;20052;-49
2021/12/12 04:24:27;;;;;;;5.18;3.13;;;9.20;74.60;;;;;;5038360;28;20029;-48
2021/12/12 04:26:54;;;;;;;8.80;3.17;;;9.20;74.80;;;;;;5033064;28;20068;-50
2021/12/12 04:29:28;;;;;;;7.47;2.65;;;9.20;74.70;;;;;;5030969;28;20108;-48
2021/12/12 04:31:58;;;;;;;7.13;2.80;;;9.20;74.80;;;;;;5043121;28;20133;-49
2021/12/12 04:34:28;;;;;;;6.07;2.38;;;9.20;75.00;;;;;;5045068;28;20040;-48
2021/12/12 04:36:58;;;;;;;7.57;2.63;;;9.20;75.10;;;;;;5050075;28;20115;-48
2021/12/12 04:39:28;;;;;;;3.83;2.55;;;9.20;75.20;;;;;;5049881;28;20106;-49
2021/12/12 04:42:15;;;;;;;9.55;2.70;;;9.20;75.30;;;;;;5011845;28;20123;-49
2021/12/12 04:44:45;;;;;;;4.95;2.60;;;9.20;75.60;;;;;;5031251;28;20049;-48
2021/12/12 04:50:37;;;;;;;12.35;3.05;;;9.20;75.70;;;;;;5032642;28;20083;-49
2021/12/12 04:53:32;;;;;;;7.60;2.30;;;9.20;76.00;;;;;;5049407;28;20110;-48
2021/12/12 04:56:16;;;;;;;6.05;2.25;;;9.20;76.00;;;;;;5032682;28;20041;-49
2021/12/12 04:58:50;;;;;;;5.43;2.53;;;9.20;76.00;;;;;;5037348;28;20037;-50
2021/12/12 05:01:22;;;;;;;5.07;2.33;;;9.20;75.90;;;;;;5033431;28;20046;-48
2021/12/12 05:03:51;;;;;;;9.50;2.10;;;9.10;76.00;;;;;;5046837;28;20055;-48
2021/12/12 05:06:27;;;;;;;6.15;2.35;;;9.20;76.30;;;;;;5049701;28;20041;-49
2021/12/12 05:09:20;;;;;;;7.30;2.67;;;9.20;76.30;;;;;;5032759;28;20447;-48
2021/12/12 05:12:02;;;;;;;7.72;3.03;;;9.20;76.60;;;;;;5030212;28;20385;-49
2021/12/12 05:14:36;;;;;;;6.07;2.63;;;9.20;76.70;;;;;;5031572;28;20045;-48
2021/12/12 05:17:11;;;;;;;4.05;2.17;;;9.20;76.50;;;;;;5049073;28;20052;-49
2021/12/12 05:19:45;;;;;;;13.48;3.47;;;9.20;76.60;;;;;;5050223;28;20045;-48
2021/12/12 05:22:17;;;;;;;7.07;2.80;;;9.20;76.80;;;;;;5043165;28;20045;-49
2021/12/12 05:24:51;;;;;;;5.50;1.88;;;9.20;76.70;;;;;;5030114;28;20045;-48
2021/12/12 05:27:20;;;;;;;7.28;1.85;;;9.20;76.80;;;;;;5030000;28;20045;-48
2021/12/12 05:29:54;;;;;;;4.35;2.10;;;9.20;76.80;;;;;;5030118;28;20121;-48
2021/12/12 05:32:22;;;;;;;5.47;2.63;;;9.20;77.20;;;;;;5031178;28;20045;-47
2021/12/12 05:34:50;;;;;;;10.88;2.85;;;9.20;77.00;;;;;;5040765;28;20072;-52
2021/12/12 05:37:19;;;;;;;4.65;2.30;;;9.20;77.00;;;;;;5029144;28;20068;-51
2021/12/12 05:39:47;;;;;;;6.90;2.13;;;9.30;77.20;;;;;;5037491;28;20115;-52
2021/12/12 05:42:15;;;;;;;6.25;2.50;;;9.20;77.20;;;;;;5024949;28;20091;-52
2021/12/12 05:44:45;;;;;;;5.95;2.42;;;9.30;77.30;;;;;;5027372;28;20045;-51
2021/12/12 05:47:12;;;;;;;10.05;2.90;;;9.30;77.40;;;;;;5038784;28;20045;-52
2021/12/12 05:49:41;;;;;;;6.63;2.65;;;9.30;77.50;;;;;;5041324;28;20059;-51
2021/12/12 05:52:15;;;;;;;5.15;2.20;;;9.30;77.60;;;;;;5038141;28;20120;-52
2021/12/12 05:54:47;;;;;;;6.70;2.63;;;9.30;77.70;;;;;;5028521;28;20063;-50
2021/12/12 05:57:23;;;;;;;5.68;2.45;;;9.30;77.60;;;;;;5028243;28;20041;-52
2021/12/12 05:59:57;;;;;;;7.57;2.58;;;9.30;77.70;;;;;;5031111;28;20041;-52
2021/12/12 06:02:26;;;;;;;4.13;1.95;;;9.40;77.90;;;;;;5026590;28;20049;-51
2021/12/12 06:04:57;;;;;;;7.53;2.72;;;9.40;77.70;;;;;;5026514;28;20800;-49
2021/12/12 06:07:25;;;;;;;6.13;2.72;;;9.40;77.90;;;;;;5028497;28;20088;-53
2021/12/12 06:09:52;;;;;;;5.07;3.20;;;9.40;77.80;;;;;;5029236;28;20087;-49
2021/12/12 06:12:20;;;;;;;4.00;2.60;;;9.40;77.80;;;;;;5030840;28;20045;-49
2021/12/12 06:14:48;;;;;;;4.00;2.45;;;9.40;77.90;;;;;;5033901;28;20377;-51
2021/12/12 06:17:18;;;;;;;4.28;2.83;;;9.40;77.90;;;;;;5010577;28;20061;-51
2021/12/12 06:19:46;;;;;;;4.90;2.55;;;9.40;77.90;;;;;;5029422;28;20053;-52
2021/12/12 06:22:14;;;;;;;3.35;2.10;;;9.40;78.00;;;;;;5022465;28;20500;-52
2021/12/12 06:24:42;;;;;;;5.43;2.05;;;9.50;78.00;;;;;;5029148;28;20558;-48
2021/12/12 06:27:17;;;;;;;2.65;2.13;;;9.50;78.00;;;;;;5030586;28;20154;-49
2021/12/12 06:29:47;;;;;;;2.65;1.70;;;9.50;78.30;;;;;;5025440;28;20033;-52
2021/12/12 06:32:14;;;;;;;2.65;2.13;;;9.50;78.10;;;;;;5026885;28;20033;-51
2021/12/12 06:34:42;;;;;;;2.55;1.88;;;9.50;78.10;;;;;;5014271;28;20041;-47
2021/12/12 06:37:10;;;;;;;2.40;1.90;;;9.50;78.10;;;;;;5037117;28;20052;-52
2021/12/12 06:39:42;;;;;;;1.92;1.50;;;9.50;78.10;;;;;;5028967;28;20064;-48
2021/12/12 06:42:09;;;;;;;3.55;2.40;;;9.50;78.10;;;;;;5033272;28;20081;-48
2021/12/12 06:44:38;;;;;;;2.38;1.80;;;9.50;78.10;;;;;;5037236;28;20080;-49
2021/12/12 06:47:08;;;;;;;4.65;2.38;;;9.60;78.20;;;;;;5046858;28;20103;-48
2021/12/12 06:49:36;;;;;;;2.42;1.92;;;9.60;78.10;;;;;;5038317;28;20140;-50
2021/12/12 06:52:06;;;;;;;2.58;2.15;;;9.60;78.10;;;;;;5030039;28;20501;-48
2021/12/12 06:54:34;;;;;;;2.67;2.35;;;9.60;78.10;;;;;;5032230;28;20042;-48
2021/12/12 06:57:06;;;;;;;3.20;1.88;;;9.60;78.10;;;;;;5046430;28;20053;-49
2021/12/12 06:59:35;;;;;;;3.25;2.25;;;9.60;78.20;;;;;;5039841;28;20041;-47
2021/12/12 07:02:03;;;;;;;3.35;2.00;;;9.60;78.10;;;;;;5030880;28;20095;-48
2021/12/12 07:04:31;;;;;;;3.38;1.70;;;9.60;78.00;;;;;;5041888;28;20065;-47
2021/12/12 07:07:01;;;;;;;2.15;1.67;;;9.70;78.10;;;;;;5031797;28;20083;-48
2021/12/12 07:09:30;;;;;;;4.03;2.10;;;9.70;78.10;;;;;;5026141;28;20658;-47
2021/12/12 07:12:01;;;;;;;3.40;2.15;;;9.70;78.10;;;;;;5023525;28;20092;-48
2021/12/12 07:14:28;;;;;;;3.63;1.95;;;9.70;78.10;;;;;;5043563;28;20036;-48
2021/12/12 07:16:56;;;;;;;3.45;2.10;;;9.70;78.10;;;;;;5047219;28;20048;-48
2021/12/12 07:19:24;;;;;;;4.15;2.22;;;9.70;78.10;;;;;;5039146;28;20048;-47
2021/12/12 07:21:51;;;;;;;3.03;1.90;;;9.70;78.00;;;;;;5043098;28;20045;-49
2021/12/12 07:24:19;;;;;;;5.50;2.13;;;9.70;78.10;;;;;;5038094;28;20050;-47
2021/12/12 07:26:46;;;;;;;3.33;1.95;;;9.70;78.00;;;;;;5029275;28;20555;-48
2021/12/12 07:29:13;;;;;;;2.30;2.10;;;9.70;78.00;;;;;;5040938;28;20041;-48
2021/12/12 07:31:42;;;;;;;3.97;2.08;;;9.80;78.00;;;;;;5039296;28;20523;-48
2021/12/12 07:34:11;;;;;;;2.95;1.85;;;9.80;78.00;;;;;;5030925;28;20462;-48
2021/12/12 07:36:43;;;;;;;2.03;1.75;;;9.80;77.90;;;;;;5029389;28;20072;-48
2021/12/12 07:39:16;;;;;;;2.72;1.70;;;9.80;78.00;;;;;;5025045;28;20062;-48
2021/12/12 07:41:46;;;;;;;4.15;2.33;;;9.80;77.90;;;;;;5044447;28;20033;-49
2021/12/12 07:44:15;;;;;;;2.55;2.20;;;9.80;77.90;;;;;;5031677;28;20075;-48
2021/12/12 07:46:43;;;;;;;2.60;1.80;;;9.80;77.90;;;;;;5028273;28;20073;-48
2021/12/12 07:49:10;;;;;;;3.58;1.63;;;9.80;77.90;;;;;;5040698;28;20048;-48
2021/12/12 07:51:40;;;;;;;2.05;1.90;;;9.80;77.90;;;;;;5042964;28;20033;-48
2021/12/12 07:54:08;;;;;;;3.33;1.73;;;9.80;77.90;;;;;;5017385;28;20719;-48
2021/12/12 07:56:42;;;;;;;3.33;2.00;;;9.80;77.90;;;;;;5005983;28;20111;-51
2021/12/12 07:59:10;;;;;;;3.60;3.03;;;9.90;78.00;;;;;;5022522;28;20045;-51
2021/12/12 08:01:41;;;;;;;2.70;2.10;;;9.90;77.90;;;;;;5020213;28;20100;-51
2021/12/12 08:04:09;;;;;;;3.60;2.53;;;9.90;77.90;;;;;;5020388;28;20989;-51
2021/12/12 08:06:36;;;;;;;3.10;2.35;;;9.90;77.80;;;;;;5020268;28;20073;-51
2021/12/12 08:09:05;;;;;;;4.53;2.78;;;9.90;77.80;;;;;;5021619;28;20044;-51
2021/12/12 08:11:33;;;;;;;5.10;2.47;;;9.90;77.90;;;;;;5028795;28;20045;-52
2021/12/12 08:14:07;;;;;;;3.17;1.58;;;9.90;77.90;;;;;;5022266;28;20070;-50
2021/12/12 08:16:34;;;;;;;3.15;2.20;;;10.00;77.90;;;;;;5019143;28;20186;-51
2021/12/12 08:19:01;;;;;;;2.28;1.90;;;10.00;77.80;;;;;;5018034;28;20064;-51
2021/12/12 08:21:33;;;;;;;3.13;2.10;;;9.90;77.80;;;;;;5015193;28;20620;-48
2021/12/12 08:24:01;;;;;;;;;;;10.00;77.80;;;;;;5020919;28;20077;-49
2021/12/12 08:26:28;;;;;;;3.55;2.00;;;10.10;78.00;;;;;;5017879;28;19987;-50
2021/12/12 08:28:56;;;;;;;1.83;1.67;;;10.10;77.40;;;;;;5030063;28;20053;-52
2021/12/12 08:31:22;;;;;;;2.08;1.75;;;10.10;77.40;;;;;;5013960;28;20042;-48
2021/12/12 08:33:49;;;;;;;2.53;1.90;;;10.10;77.50;;;;;;5033088;28;20122;-51
2021/12/12 08:36:17;;;;;;;2.65;2.03;;;10.10;77.50;;;;;;5017064;28;20041;-50
2021/12/12 08:38:43;;;;;;;2.15;1.52;;;10.10;77.50;;;;;;5028232;28;20536;-49
2021/12/12 08:41:11;;;;;;;2.13;1.90;;;10.20;77.60;;;;;;5021451;28;20041;-49
2021/12/12 08:43:39;;;;;;;3.17;2.00;;;10.20;77.60;;;;;;5027224;28;20451;-48
2021/12/12 08:46:12;;;;;;;1.98;1.73;;;10.20;77.60;;;;;;5021071;28;20053;-52
2021/12/12 08:48:43;;;;;;;2.30;1.88;;;10.20;77.60;;;;;;5031734;28;20401;-51
2021/12/12 08:51:29;;;;;;;2.92;1.70;;;10.20;77.60;;;;;;5011086;28;20044;-49
2021/12/12 08:54:02;;;;;;;2.85;2.13;;;10.30;77.60;;;;;;5031792;28;20447;-50
2021/12/12 08:56:45;;;;;;;4.22;1.70;;;10.30;78.20;;;;;;5017736;28;20551;-51
2021/12/12 08:59:34;;;;;;;2.72;2.50;;;10.30;77.50;;;;;;5013421;28;20052;-51
2021/12/12 09:02:07;;;;;;;3.42;2.17;;;10.30;77.70;;;;;;5017741;28;20041;-50
2021/12/12 09:04:49;;;;;;;4.28;2.25;;;10.40;77.60;;;;;;5023579;28;20069;-48
2021/12/12 09:07:16;;;;;;;2.50;2.00;;;10.40;77.60;;;;;;5019467;28;20045;-48
2021/12/12 09:10:06;;;;;;;2.55;2.20;;;10.50;77.60;;;;;;5011901;28;20559;-50
2021/12/12 09:12:39;;;;;;;2.72;2.47;;;10.50;77.80;;;;;;5026917;28;20029;-48
2021/12/12 09:15:18;;;;;;;2.08;1.75;;;10.50;77.60;;;;;;5021658;28;20034;-51
2021/12/12 09:17:55;;;;;;;2.22;2.00;;;10.50;77.50;;;;;;5027880;28;20045;-47
2021/12/12 09:20:32;;;;;;;3.10;2.80;;;10.60;77.40;;;;;;5012269;28;20046;-52
2021/12/12 09:23:21;;;;;;;4.82;2.53;;;10.60;77.30;;;;;;5025067;28;20060;-49
2021/12/12 09:25:56;;;;;;;2.60;2.40;;;10.60;77.20;;;;;;5012457;28;20049;-51
2021/12/12 09:28:37;;;;;;;2.55;2.35;;;10.60;77.20;;;;;;5010929;28;20092;-49
2021/12/12 09:31:13;;;;;;;3.08;1.85;;;10.70;77.80;;;;;;5012737;28;20053;-50
2021/12/12 09:33:56;;;;;;;3.35;2.28;;;10.70;77.20;;;;;;5037253;28;20637;-49
2021/12/12 09:36:33;;;;;;;4.13;2.60;;;10.70;77.30;;;;;;5023816;28;20053;-48
2021/12/12 09:39:05;;;;;;;2.05;1.85;;;10.70;77.30;;;;;;5021010;28;20049;-50
2021/12/12 09:41:57;;;;;;;4.38;1.80;;;10.70;77.10;;;;;;5022894;28;20041;-50
2021/12/12 09:44:51;;;;;;;1.80;1.70;;;10.80;77.40;;;;;;5023866;28;20037;-52
2021/12/12 09:47:46;;;;;;;3.00;1.77;;;10.80;77.40;;;;;;5014336;28;20030;-48
2021/12/12 09:53:47;;;;;;;4.20;2.20;;;10.80;76.90;;;;;;5020973;28;20041;-51
2021/12/12 09:56:49;;;;;;;3.83;2.00;;;10.80;77.00;;;;;;5015335;28;20041;-48
2021/12/12 09:59:52;;;;;;;3.70;2.30;;;10.90;77.30;;;;;;5005706;28;20057;-51
2021/12/12 10:02:30;;;;;;;5.78;2.20;;;10.90;77.50;;;;;;5031674;28;20447;-51
2021/12/12 10:05:31;;;;;;;2.92;1.80;;;10.90;77.60;;;;;;5029581;28;20112;-52
2021/12/12 10:08:22;;;;;;;2.80;2.47;;;10.90;77.90;;;;;;5016644;28;20041;-47
2021/12/12 10:11:09;;;;;;;3.17;2.40;;;10.90;77.60;;;;;;5013144;28;20038;-47
2021/12/12 10:13:45;;;;;;;4.72;2.10;;;10.90;77.90;;;;;;5034583;28;20053;-50
2021/12/12 10:16:27;;;;;;;2.92;2.17;;;10.90;77.90;;;;;;5012675;28;20045;-47
2021/12/12 10:19:00;;;;;;;3.88;2.17;;;10.90;78.20;;;;;;5027059;28;20060;-50
2021/12/12 10:21:36;;;;;;;3.47;1.90;;;10.90;77.90;;;;;;5022751;28;20036;-45
2021/12/12 10:24:21;;;;;;;2.35;2.05;;;10.90;78.10;;;;;;5019686;28;20041;-44
2021/12/12 10:26:59;;;;;;;4.45;2.78;;;10.90;78.50;;;;;;5016789;28;20034;-45
2021/12/12 10:30:01;;;;;;;4.07;2.10;;;10.90;78.50;;;;;;5019453;28;20080;-43
2021/12/12 10:32:32;;;;;;;5.15;2.50;;;10.90;78.90;;;;;;5026136;28;20044;-43
2021/12/12 10:35:13;;;;;;;4.28;2.80;;;10.90;78.50;;;;;;5018684;28;20037;-42
2021/12/12 10:37:54;;;;;;;2.80;2.33;;;10.90;78.80;;;;;;5023275;28;20041;-42
2021/12/12 10:40:30;;;;;;;6.20;2.47;;;10.90;78.70;;;;;;5025588;23;20044;-75
2021/12/12 10:43:03;;;;;;;3.22;2.08;;;11.00;78.50;;;;;;4990811;28;20148;-75
2021/12/12 10:45:37;;;;;;;3.63;2.47;;;11.00;78.50;;;;;;4983593;28;20050;-75
2021/12/12 10:48:15;;;;;;;;;;;11.00;78.60;;;;;;5009351;28;20073;-75
2021/12/12 10:51:04;;;;;;;4.30;2.88;;;11.00;78.80;;;;;;4979255;28;20459;-75
2021/12/12 10:53:43;;;;;;;4.93;2.75;;;11.00;78.40;;;;;;4985829;28;20198;-75
2021/12/12 10:56:19;;;;;;;4.18;2.80;;;11.00;78.30;;;;;;4981905;28;20629;-75
2021/12/12 10:58:59;;;;;;;3.30;2.30;;;11.10;78.30;;;;;;4999092;28;20092;-75
2021/12/12 11:01:34;;;;;;;5.28;3.00;;;11.00;78.50;;;;;;4975552;28;20050;-75
2021/12/12 11:04:11;;;;;;;3.63;2.30;;;11.00;78.50;;;;;;4998624;28;20377;-75
2021/12/12 11:06:43;;;;;;;4.75;2.60;;;11.10;78.60;;;;;;5006194;28;20069;-75
2021/12/12 11:09:26;;;;;;;3.30;2.85;;;11.10;78.40;;;;;;4993634;28;23010;-75
2021/12/12 11:12:21;;;;;;;4.47;2.55;;;11.10;78.60;;;;;;5001036;28;20046;-75
2021/12/12 11:15:04;;;;;;;3.30;2.72;;;11.10;78.70;;;;;;5001088;28;20046;-75
2021/12/12 11:17:43;;;;;;;6.55;3.03;;;11.10;78.40;;;;;;4985193;28;20053;-75
2021/12/12 11:20:21;;;;;;;3.10;2.20;;;11.10;78.50;;;;;;4980433;28;20056;-75
2021/12/12 11:22:57;;;;;;;3.15;2.20;;;11.10;78.50;;;;;;5004565;28;20048;-75
2021/12/12 11:25:36;;;;;;;4.35;2.50;;;11.10;78.50;;;;;;5012548;23;20050;-41
2021/12/12 11:28:24;;;;;;;3.15;2.72;;;11.10;78.50;;;;;;4999802;28;20046;-42
2021/12/12 11:30:53;;;;;;;3.03;2.53;;;11.10;78.50;;;;;;4995602;28;20050;-43
2021/12/12 11:33:21;;;;;;;2.63;2.33;;;11.10;78.60;;;;;;5015265;28;20067;-43
2021/12/12 11:35:52;;;;;;;3.72;2.13;;;11.20;78.80;;;;;;4995406;28;20077;-43
2021/12/12 11:38:33;;;;;;;4.55;3.33;;;11.20;78.90;;;;;;5011069;28;20123;-44
2021/12/12 11:41:07;;;;;;;2.93;2.13;;;11.20;79.30;;;;;;4995359;28;20104;-42
2021/12/12 11:43:44;;;;;;;4.13;2.65;;;11.20;79.00;;;;;;5006070;28;20120;-47
2021/12/12 11:46:32;;;;;;;2.28;1.85;;;11.30;79.20;;;;;;4993437;28;20058;-44
2021/12/12 11:49:23;;;;;;;3.15;2.38;;;11.30;79.00;;;;;;5007875;28;20113;-42
2021/12/12 11:52:04;;;;;;;2.97;2.20;;;11.30;79.00;;;;;;5002426;28;20034;-44
2021/12/12 11:54:58;;;;;;;3.85;2.60;;;11.40;78.80;;;;;;5000897;28;20041;-47
2021/12/12 11:57:38;;;;;;;3.85;2.58;;;11.40;78.70;;;;;;5004037;28;20051;-43
2021/12/12 12:00:08;;;;;;;2.42;2.22;;;11.40;78.60;;;;;;4992692;28;20453;-43
2021/12/12 12:02:56;;;;;;;2.95;2.47;;;11.40;78.50;;;;;;5014481;28;20045;-43
2021/12/12 12:05:37;;;;;;;3.15;2.80;;;11.50;78.50;;;;;;4999600;28;20125;-41
2021/12/12 12:08:39;;;;;;;2.30;2.10;;;11.40;78.60;;;;;;5006001;28;20054;-42
2021/12/12 12:11:38;;;;;;;3.05;2.42;;;11.50;78.70;;;;;;5004072;28;20034;-44
2021/12/12 12:14:18;;;;;;;3.90;2.40;;;11.50;78.60;;;;;;5009406;28;20124;-42
2021/12/12 12:17:01;;;;;;;6.25;3.40;;;11.50;78.40;;;;;;5005429;28;20037;-44
2021/12/12 12:19:55;;;;;;;5.18;2.33;;;11.50;78.20;;;;;;5004728;28;20080;-44
2021/12/12 12:22:47;;;;;;;3.17;2.55;;;11.50;78.50;;;;;;5001898;28;20042;-42
2021/12/12 12:26:50;;;;;;;3.78;2.97;;;11.50;78.50;;;;;;4977896;28;20477;-45
2021/12/12 12:28:30;;;;;;;4.93;3.05;;;11.60;78.50;;;;;;5013187;28;20050;-44
2021/12/12 12:31:39;;;;;;;4.50;2.70;;;11.50;78.40;;;;;;4998313;28;20072;-46
2021/12/12 12:34:30;;;;;;;2.95;2.75;;;11.60;78.60;;;;;;5005893;28;20072;-43
2021/12/12 12:37:31;;;;;;;3.72;3.03;;;11.60;78.70;;;;;;5006055;28;20637;-44
2021/12/12 12:40:36;;;;;;;3.15;2.75;;;11.60;78.80;;;;;;4997889;28;20042;-45
2021/12/12 12:43:40;;;;;;;3.95;2.80;;;11.60;78.90;;;;;;4992846;28;20108;-44
2021/12/12 12:46:29;;;;;;;4.65;3.47;;;11.60;78.90;;;;;;5000125;28;20077;-42
2021/12/12 12:49:38;;;;;;;3.50;3.13;;;11.60;78.60;;;;;;5013817;28;20038;-45
2021/12/12 12:52:13;;;;;;;3.30;2.92;;;11.60;78.90;;;;;;4998336;28;20058;-42
2021/12/12 12:54:47;;;;;;;5.25;2.83;;;11.60;78.60;;;;;;4999846;28;20531;-48
2021/12/12 12:57:20;;;;;;;4.85;3.28;;;11.60;78.60;;;;;;5011472;28;20050;-43
2021/12/12 13:00:06;;;;;;;3.92;3.53;;;11.70;78.70;;;;;;5003261;28;20050;-44
2021/12/12 13:02:55;;;;;;;4.18;3.40;;;11.60;78.50;;;;;;5000515;28;20133;-43
2021/12/12 13:06:07;;;;;;;3.50;3.20;;;11.70;78.90;;;;;;5010347;28;20578;-44
2021/12/12 13:08:49;;;;;;;3.38;3.08;;;11.60;78.90;;;;;;5003515;28;20088;-43
2021/12/12 13:11:25;;;;;;;3.40;3.10;;;11.70;78.80;;;;;;5005212;28;20042;-44
2021/12/12 13:14:21;;;;;;;4.20;3.85;;;11.70;78.60;;;;;;5011281;28;20037;-43
2021/12/12 13:16:55;;;;;;;3.25;2.97;;;11.70;79.10;;;;;;5016280;28;20068;-42
2021/12/12 13:19:42;;;;;;;3.50;2.97;;;11.60;78.70;;;;;;5009865;28;20582;-42
2021/12/12 13:22:26;;;;;;;3.00;2.70;;;11.60;78.90;;;;;;5015585;28;20053;-43
2021/12/12 13:24:58;;;;;;;3.40;3.10;;;11.60;78.60;;;;;;5010858;28;20814;-47
2021/12/12 13:28:03;;;;;;;3.50;3.20;;;11.70;78.70;;;;;;5012217;28;20390;-46
2021/12/12 13:30:43;;;;;;;2.95;2.63;;;11.60;78.70;;;;;;4990653;28;20096;-43
2021/12/12 13:33:23;;;;;;;4.93;3.20;;;11.70;78.90;;;;;;4991818;28;20670;-42
2021/12/12 13:36:09;;;;;;;2.95;2.38;;;11.60;79.00;;;;;;5017143;28;20041;-42
2021/12/12 13:38:48;;;;;;;2.65;2.45;;;11.60;78.90;;;;;;5018199;28;20034;-43
2021/12/12 13:41:25;;;;;;;2.60;2.40;;;11.60;78.90;;;;;;5010516;28;20046;-46
2021/12/12 13:43:59;;;;;;;3.25;2.85;;;11.60;79.10;;;;;;5009048;28;21009;-42
2021/12/12 13:46:37;;;;;;;2.95;2.65;;;11.70;79.30;;;;;;5010554;28;20080;-42
2021/12/12 13:49:11;;;;;;;4.25;2.65;;;11.70;79.40;;;;;;5022300;28;20037;-43
2021/12/12 13:52:03;;;;;;;3.35;3.05;;;11.70;79.20;;;;;;4983369;28;20038;-42
2021/12/12 13:54:56;;;;;;;2.95;2.70;;;11.70;79.70;;;;;;5004542;28;20072;-42
2021/12/12 13:57:37;;;;;;;3.15;2.85;;;11.70;79.50;;;;;;4979273;28;20107;-42
2021/12/12 14:00:21;;;;;;;2.83;2.63;;;11.70;79.70;;;;;;5020737;28;20037;-42